createdAt,value
2023-05-17T00:01:38.572Z,17.03
2023-05-17T00:04:24.998Z,17.11
2023-05-17T00:07:11.322Z,17.06
2023-05-17T00:09:57.152Z,17.02
2023-05-17T00:12:43.210Z,17.04
2023-05-17T00:15:29.183Z,16.96
2023-05-17T00:18:16.720Z,16.93
2023-05-17T00:21:03.178Z,16.90
2023-05-17T00:23:49.068Z,16.91
2023-05-17T00:26:35.404Z,16.86
2023-05-17T00:29:21.792Z,16.79
2023-05-17T00:32:08.296Z,16.87
2023-05-17T00:34:56.153Z,16.86
2023-05-17T00:37:47.520Z,16.68
2023-05-17T00:40:33.439Z,16.54
2023-05-17T00:43:19.228Z,16.48
2023-05-17T00:46:05.913Z,16.56
2023-05-17T00:48:52.231Z,16.41
2023-05-17T00:51:40.509Z,16.41
2023-05-17T00:54:27.329Z,16.31
2023-05-17T00:57:13.693Z,16.40
2023-05-17T01:00:00.639Z,16.19
2023-05-17T01:02:48.653Z,16.30
2023-05-17T01:05:35.476Z,16.19
2023-05-17T01:08:23.701Z,16.23
2023-05-17T01:11:15.679Z,16.24
2023-05-17T01:14:10.802Z,16.12
2023-05-17T01:16:58.558Z,16.14
2023-05-17T01:19:56.031Z,16.25
2023-05-17T01:22:46.457Z,16.22
2023-05-17T01:25:46.163Z,16.07
2023-05-17T01:28:34.633Z,16.13
2023-05-17T01:31:21.425Z,16.17
2023-05-17T01:34:08.300Z,16.02
2023-05-17T01:36:54.355Z,15.99
2023-05-17T01:39:41.369Z,15.98
2023-05-17T01:42:31.330Z,15.99
2023-05-17T01:45:22.914Z,15.95
2023-05-17T01:48:16.687Z,16.00
2023-05-17T01:51:03.723Z,16.06
2023-05-17T01:53:56.769Z,16.07
2023-05-17T01:56:44.920Z,16.14
2023-05-17T01:59:32.648Z,16.09
2023-05-17T02:02:22.304Z,16.18
2023-05-17T02:05:09.434Z,16.18
2023-05-17T02:07:58.803Z,16.16
2023-05-17T02:10:44.680Z,16.14
2023-05-17T02:13:30.702Z,16.16
2023-05-17T02:16:16.854Z,16.16
2023-05-17T02:19:04.478Z,16.09
2023-05-17T02:21:51.931Z,16.17
2023-05-17T02:24:37.688Z,16.28
2023-05-17T02:27:24.579Z,16.19
2023-05-17T02:30:15.652Z,16.22
2023-05-17T02:33:03.660Z,16.24
2023-05-17T02:35:51.377Z,16.26
2023-05-17T02:38:39.347Z,16.25
2023-05-17T02:41:25.245Z,16.32
2023-05-17T02:44:11.026Z,16.41
2023-05-17T02:46:57.043Z,16.36
2023-05-17T02:49:43.354Z,16.36
2023-05-17T02:52:31.072Z,16.24
2023-05-17T02:55:17.393Z,16.34
2023-05-17T02:58:04.397Z,16.51
2023-05-17T03:00:51.334Z,16.47
2023-05-17T03:03:37.882Z,16.48
2023-05-17T03:06:25.650Z,16.46
2023-05-17T03:09:13.401Z,16.31
2023-05-17T03:11:59.901Z,16.25
2023-05-17T03:14:50.038Z,16.22
2023-05-17T03:17:36.792Z,16.16
2023-05-17T03:20:23.243Z,16.23
2023-05-17T03:23:09.538Z,16.19
2023-05-17T03:26:05.352Z,16.01
2023-05-17T03:28:58.425Z,16.21
2023-05-17T03:31:44.927Z,16.20
2023-05-17T03:34:31.817Z,16.10
2023-05-17T03:37:18.165Z,16.16
2023-05-17T03:40:05.853Z,16.05
2023-05-17T03:42:54.197Z,16.05
2023-05-17T03:45:40.002Z,16.04
2023-05-17T03:48:26.346Z,15.99
2023-05-17T03:51:13.283Z,15.92
2023-05-17T03:54:01.469Z,16.00
2023-05-17T03:56:50.264Z,16.02
2023-05-17T03:59:38.855Z,16.09
2023-05-17T04:02:25.691Z,16.05
2023-05-17T04:05:13.200Z,16.01
2023-05-17T04:08:01.453Z,15.95
2023-05-17T04:10:47.606Z,15.95
2023-05-17T04:13:34.150Z,15.92
2023-05-17T04:16:22.045Z,15.91
2023-05-17T04:19:08.572Z,15.92
2023-05-17T04:21:55.106Z,15.93
2023-05-17T04:24:43.788Z,16.07
2023-05-17T04:27:30.207Z,15.97
2023-05-17T04:30:16.979Z,16.05
2023-05-17T04:33:05.950Z,16.04
2023-05-17T04:35:55.862Z,16.16
2023-05-17T04:38:42.591Z,16.20
2023-05-17T04:41:31.859Z,16.20
2023-05-17T04:44:18.557Z,16.13
2023-05-17T04:47:05.235Z,16.06
2023-05-17T04:49:52.728Z,16.18
2023-05-17T04:52:38.899Z,16.24
2023-05-17T04:55:28.981Z,16.27
2023-05-17T04:58:15.245Z,16.18
2023-05-17T05:01:03.886Z,16.12
2023-05-17T05:03:50.232Z,16.09
2023-05-17T05:06:37.934Z,16.22
2023-05-17T05:09:24.294Z,16.36
2023-05-17T05:12:11.100Z,16.25
2023-05-17T05:14:59.601Z,16.51
2023-05-17T05:17:47.605Z,16.62
2023-05-17T05:20:33.899Z,16.54
2023-05-17T05:23:24.546Z,16.60
2023-05-17T05:26:11.165Z,16.56
2023-05-17T05:28:58.072Z,16.68
2023-05-17T05:31:44.250Z,16.55
2023-05-17T05:34:31.594Z,16.56
2023-05-17T05:37:19.167Z,16.61
2023-05-17T05:40:08.827Z,16.92
2023-05-17T05:42:55.347Z,16.92
2023-05-17T05:45:45.739Z,17.03
2023-05-17T05:48:31.715Z,17.11
2023-05-17T05:51:19.363Z,16.93
2023-05-17T05:54:06.778Z,16.86
2023-05-17T05:56:54.507Z,17.16
2023-05-17T05:59:40.772Z,17.10
2023-05-17T06:02:27.420Z,17.19
2023-05-17T06:05:13.772Z,17.36
2023-05-17T06:08:00.411Z,17.38
2023-05-17T06:10:46.718Z,17.15
2023-05-17T06:13:34.261Z,17.47
2023-05-17T06:16:20.193Z,17.65
2023-05-17T06:19:06.288Z,17.91
2023-05-17T06:21:52.653Z,17.77
2023-05-17T06:24:38.579Z,17.86
2023-05-17T06:27:24.873Z,18.15
2023-05-17T06:30:13.278Z,18.17
2023-05-17T06:32:59.728Z,18.30
2023-05-17T06:35:56.358Z,18.35
2023-05-17T06:38:43.712Z,18.42
2023-05-17T06:41:29.829Z,18.57
2023-05-17T06:44:18.258Z,18.57
2023-05-17T06:47:06.098Z,18.65
2023-05-17T06:49:52.392Z,18.71
2023-05-17T06:52:38.448Z,18.71
2023-05-17T06:55:25.088Z,18.89
2023-05-17T06:58:10.965Z,18.85
2023-05-17T07:00:57.295Z,19.08
2023-05-17T07:03:45.095Z,19.08
2023-05-17T07:06:31.270Z,19.17
2023-05-17T07:09:17.994Z,19.28
2023-05-17T07:12:06.356Z,19.41
2023-05-17T07:14:52.538Z,19.49
2023-05-17T07:17:38.977Z,19.62
2023-05-17T07:20:27.075Z,19.64
2023-05-17T07:23:13.222Z,19.70
2023-05-17T07:25:59.084Z,19.73
2023-05-17T07:28:45.004Z,19.91
2023-05-17T07:31:31.580Z,20.51
2023-05-17T07:34:18.065Z,20.95
2023-05-17T07:37:05.999Z,21.07
2023-05-17T07:39:52.127Z,21.33
2023-05-17T07:42:38.053Z,21.43
2023-05-17T07:45:24.017Z,21.37
2023-05-17T07:48:11.319Z,21.44
2023-05-17T07:50:57.573Z,21.49
2023-05-17T07:53:44.799Z,21.29
2023-05-17T07:56:30.797Z,21.52
2023-05-17T07:59:16.579Z,21.65
2023-05-17T08:02:02.614Z,21.40
2023-05-17T08:04:48.692Z,21.47
2023-05-17T08:07:34.894Z,21.42
2023-05-17T08:10:22.424Z,21.57
2023-05-17T08:13:09.120Z,21.61
2023-05-17T08:16:01.734Z,21.52
2023-05-17T08:18:58.662Z,21.63
2023-05-17T08:21:46.231Z,21.62
2023-05-17T08:24:32.583Z,21.50
2023-05-17T08:27:20.158Z,21.49
2023-05-17T08:30:11.695Z,21.47
2023-05-17T08:33:01.556Z,21.99
2023-05-17T08:35:48.961Z,22.02
2023-05-17T08:38:35.437Z,21.81
2023-05-17T08:41:22.014Z,21.96
2023-05-17T08:44:10.157Z,22.12
2023-05-17T08:46:59.015Z,22.05
2023-05-17T08:49:48.072Z,22.12
2023-05-17T08:52:35.014Z,22.06
2023-05-17T08:55:21.087Z,21.99
2023-05-17T08:58:09.103Z,21.84
2023-05-17T09:00:57.237Z,21.79
2023-05-17T09:03:48.465Z,21.43
2023-05-17T09:06:35.458Z,21.60
2023-05-17T09:09:22.583Z,21.84
2023-05-17T09:12:09.271Z,22.27
2023-05-17T09:14:55.220Z,22.26
2023-05-17T09:17:43.081Z,22.36
2023-05-17T09:20:34.980Z,22.37
2023-05-17T09:23:22.342Z,22.53
2023-05-17T09:26:08.842Z,22.73
2023-05-17T09:28:55.097Z,23.31
2023-05-17T09:31:42.204Z,23.15
2023-05-17T09:34:29.764Z,23.59
2023-05-17T09:37:17.255Z,24.47
2023-05-17T09:40:04.056Z,24.29
2023-05-17T09:42:50.285Z,24.02
2023-05-17T09:45:36.891Z,24.00
2023-05-17T09:48:23.573Z,24.34
2023-05-17T09:51:11.215Z,24.47
2023-05-17T09:53:58.979Z,24.29
2023-05-17T09:56:45.013Z,24.08
2023-05-17T09:59:31.113Z,24.06
2023-05-17T10:02:22.039Z,24.23
2023-05-17T10:05:12.108Z,24.36
2023-05-17T10:07:59.765Z,24.50
2023-05-17T10:10:46.387Z,24.21
2023-05-17T10:13:35.928Z,24.41
2023-05-17T10:16:23.406Z,24.65
2023-05-17T10:19:10.073Z,24.24
2023-05-17T10:22:04.977Z,24.42
2023-05-17T10:25:06.993Z,24.44
2023-05-17T10:27:53.041Z,24.53
2023-05-17T10:30:39.574Z,24.94
2023-05-17T10:33:25.728Z,25.02
2023-05-17T10:36:11.924Z,25.73
2023-05-17T10:38:59.823Z,25.90
2023-05-17T10:41:48.996Z,25.79
2023-05-17T10:44:36.183Z,26.31
2023-05-17T10:47:22.354Z,26.64
2023-05-17T10:50:13.062Z,26.92
2023-05-17T10:52:59.612Z,27.08
2023-05-17T10:55:46.066Z,27.55
2023-05-17T10:58:33.552Z,27.84
2023-05-17T11:01:50.181Z,28.51
2023-05-17T11:04:37.986Z,28.68
2023-05-17T11:07:29.239Z,28.65
2023-05-17T11:10:16.915Z,28.43
2023-05-17T11:13:23.422Z,28.50
2023-05-17T11:16:11.194Z,28.97
2023-05-17T11:18:58.368Z,28.62
2023-05-17T11:21:48.258Z,28.72
2023-05-17T11:24:34.373Z,28.86
2023-05-17T11:27:21.070Z,28.84
2023-05-17T11:30:17.090Z,28.85
2023-05-17T11:33:13.530Z,28.80
2023-05-17T11:36:15.153Z,27.75
2023-05-17T11:39:11.380Z,27.77
2023-05-17T11:41:58.396Z,27.73
2023-05-17T11:44:44.698Z,28.26
2023-05-17T11:47:31.339Z,28.25
2023-05-17T11:50:18.803Z,28.11
2023-05-17T11:53:05.446Z,27.80
2023-05-17T11:55:51.867Z,27.26
2023-05-17T11:58:38.396Z,26.92
2023-05-17T12:01:24.428Z,26.66
2023-05-17T12:04:10.461Z,26.59
2023-05-17T12:06:58.890Z,26.65
2023-05-17T12:09:45.623Z,26.71
2023-05-17T12:12:32.479Z,26.68
2023-05-17T12:15:20.387Z,26.87
2023-05-17T12:18:06.820Z,26.85
2023-05-17T12:20:57.214Z,26.96
2023-05-17T12:23:46.822Z,26.79
2023-05-17T12:26:34.011Z,26.91
2023-05-17T12:29:22.707Z,26.75
2023-05-17T12:32:09.641Z,27.14
2023-05-17T12:34:56.012Z,27.41
2023-05-17T12:37:42.122Z,27.60
2023-05-17T12:40:30.251Z,27.59
2023-05-17T12:43:16.511Z,27.41
2023-05-17T12:46:07.612Z,27.34
2023-05-17T12:48:55.754Z,27.16
2023-05-17T12:51:43.885Z,27.15
2023-05-17T12:54:30.788Z,27.10
2023-05-17T12:57:20.014Z,26.95
2023-05-17T13:00:09.055Z,25.72
2023-05-17T13:02:55.022Z,26.68
2023-05-17T13:05:44.076Z,26.96
2023-05-17T13:08:30.375Z,26.88
2023-05-17T13:11:16.792Z,26.73
2023-05-17T13:14:04.445Z,26.55
2023-05-17T13:16:52.532Z,26.07
2023-05-17T13:19:39.230Z,26.10
2023-05-17T13:22:25.932Z,25.32
2023-05-17T13:25:13.737Z,25.64
2023-05-17T13:28:02.398Z,25.66
2023-05-17T13:30:52.039Z,25.72
2023-05-17T13:33:38.961Z,25.55
2023-05-17T13:36:25.177Z,25.53
2023-05-17T13:39:11.102Z,25.37
2023-05-17T13:41:56.933Z,25.61
2023-05-17T13:44:42.836Z,25.49
2023-05-17T13:47:32.002Z,25.35
2023-05-17T13:50:19.445Z,25.41
2023-05-17T13:53:05.750Z,25.12
2023-05-17T13:55:52.169Z,24.97
2023-05-17T13:58:38.052Z,24.77
2023-05-17T14:01:23.933Z,24.85
2023-05-17T14:04:11.703Z,24.71
2023-05-17T14:06:57.954Z,24.38
2023-05-17T14:09:43.779Z,24.30
2023-05-17T14:12:29.798Z,24.06
2023-05-17T14:15:15.653Z,24.17
2023-05-17T14:18:01.694Z,24.08
2023-05-17T14:20:49.590Z,23.88
2023-05-17T14:23:36.125Z,23.95
2023-05-17T14:26:22.682Z,24.04
2023-05-17T14:29:08.515Z,23.87
2023-05-17T14:31:54.310Z,23.79
2023-05-17T14:34:40.269Z,23.76
2023-05-17T14:37:27.543Z,23.84
2023-05-17T14:40:13.620Z,23.70
2023-05-17T14:42:59.815Z,23.68
2023-05-17T14:45:46.526Z,23.67
2023-05-17T14:48:33.830Z,23.66
2023-05-17T14:51:20.189Z,23.42
2023-05-17T14:54:07.525Z,23.64
2023-05-17T14:56:53.865Z,23.46
2023-05-17T14:59:40.153Z,23.72
2023-05-17T15:02:26.406Z,23.60
2023-05-17T15:05:12.831Z,23.60
2023-05-17T15:07:58.975Z,23.23
2023-05-17T15:10:46.223Z,23.14
2023-05-17T15:13:32.391Z,23.10
2023-05-17T15:16:18.331Z,22.82
2023-05-17T15:19:04.924Z,22.85
2023-05-17T15:21:51.839Z,22.43
2023-05-17T15:24:39.486Z,22.43
2023-05-17T15:27:26.728Z,22.07
2023-05-17T15:30:13.928Z,22.11
2023-05-17T15:33:01.065Z,21.94
2023-05-17T15:35:47.154Z,22.06
2023-05-17T15:38:33.133Z,21.96
2023-05-17T15:41:21.618Z,22.08
2023-05-17T15:44:09.353Z,21.95
2023-05-17T15:46:55.339Z,21.98
2023-05-17T15:49:41.380Z,21.88
2023-05-17T15:52:27.521Z,21.79
2023-05-17T15:55:13.291Z,21.67
2023-05-17T15:57:59.052Z,21.50
2023-05-17T16:00:46.998Z,21.43
2023-05-17T16:03:33.397Z,21.34
2023-05-17T16:06:21.801Z,21.43
2023-05-17T16:09:08.466Z,21.56
2023-05-17T16:11:54.419Z,21.62
2023-05-17T16:14:40.775Z,21.55
2023-05-17T16:17:28.292Z,21.26
2023-05-17T16:20:14.427Z,21.19
2023-05-17T16:23:00.665Z,21.16
2023-05-17T16:25:47.169Z,21.13
2023-05-17T16:28:35.399Z,20.95
2023-05-17T16:31:21.512Z,20.93
2023-05-17T16:34:09.158Z,20.85
2023-05-17T16:36:55.633Z,20.69
2023-05-17T16:39:41.797Z,20.96
2023-05-17T16:42:28.366Z,21.00
2023-05-17T16:45:14.509Z,20.92
2023-05-17T16:48:00.623Z,20.88
2023-05-17T16:50:49.481Z,20.85
2023-05-17T16:53:35.277Z,20.95
2023-05-17T16:56:22.126Z,20.50
2023-05-17T16:59:08.103Z,20.67
2023-05-17T17:01:54.122Z,20.80
2023-05-17T17:04:40.430Z,20.58
2023-05-17T17:07:28.005Z,20.58
2023-05-17T17:10:14.599Z,20.57
2023-05-17T17:13:00.542Z,20.63
2023-05-17T17:15:46.764Z,20.52
2023-05-17T17:18:32.866Z,20.65
2023-05-17T17:21:19.210Z,20.68
2023-05-17T17:24:07.319Z,20.47
2023-05-17T17:26:53.171Z,20.43
2023-05-17T17:29:39.208Z,20.26
2023-05-17T17:32:25.115Z,20.44
2023-05-17T17:35:11.515Z,20.43
2023-05-17T17:37:57.778Z,20.36
2023-05-17T17:40:45.926Z,20.31
2023-05-17T17:43:31.737Z,20.27
2023-05-17T17:46:17.658Z,20.21
2023-05-17T17:49:04.382Z,20.18
2023-05-17T17:51:50.714Z,20.13
2023-05-17T17:54:36.981Z,20.07
2023-05-17T17:57:24.203Z,20.02
2023-05-17T18:00:12.703Z,19.75
2023-05-17T18:02:59.409Z,19.60
2023-05-17T18:05:46.139Z,19.67
2023-05-17T18:08:32.274Z,19.67
2023-05-17T18:11:18.289Z,19.55
2023-05-17T18:14:06.130Z,19.45
2023-05-17T18:16:52.217Z,19.36
2023-05-17T18:19:38.299Z,19.46
2023-05-17T18:22:24.109Z,19.16
2023-05-17T18:25:11.260Z,19.21
2023-05-17T18:27:57.336Z,19.15
2023-05-17T18:30:44.515Z,19.03
2023-05-17T18:33:30.550Z,19.04
2023-05-17T18:36:17.021Z,19.01
2023-05-17T18:39:03.008Z,18.92
2023-05-17T18:41:49.420Z,18.85
2023-05-17T18:44:36.016Z,18.80
2023-05-17T18:47:23.731Z,18.69
2023-05-17T18:50:09.986Z,18.52
2023-05-17T18:52:57.258Z,18.41
2023-05-17T18:55:43.763Z,18.47
2023-05-17T18:58:29.805Z,18.44
2023-05-17T19:01:16.099Z,18.44
2023-05-17T19:04:04.105Z,18.23
2023-05-17T19:06:50.616Z,18.18
2023-05-17T19:09:36.881Z,18.03
2023-05-17T19:12:23.375Z,18.06
2023-05-17T19:15:10.415Z,17.99
2023-05-17T19:17:56.608Z,17.91
2023-05-17T19:20:44.243Z,17.79
2023-05-17T19:23:32.037Z,17.78
2023-05-17T19:26:18.086Z,17.80
2023-05-17T19:29:04.196Z,17.66
2023-05-17T19:31:50.617Z,17.69
2023-05-17T19:34:36.774Z,17.60
2023-05-17T19:37:24.006Z,17.46
2023-05-17T19:40:11.234Z,17.45
2023-05-17T19:42:57.111Z,17.35
2023-05-17T19:45:43.325Z,17.25
2023-05-17T19:48:29.518Z,17.18
2023-05-17T19:51:16.070Z,17.04
2023-05-17T19:54:03.613Z,17.10
2023-05-17T19:56:49.473Z,17.05
2023-05-17T19:59:35.844Z,16.97
2023-05-17T20:02:22.380Z,16.86
2023-05-17T20:05:09.637Z,16.83
2023-05-17T20:07:55.972Z,16.75
2023-05-17T20:10:43.190Z,16.70
2023-05-17T20:13:29.550Z,16.61
2023-05-17T20:16:15.927Z,16.56
2023-05-17T20:19:02.037Z,16.51
2023-05-17T20:21:48.189Z,16.49
2023-05-17T20:24:34.863Z,16.36
2023-05-17T20:27:25.873Z,16.27
2023-05-17T20:30:12.180Z,16.18
2023-05-17T20:32:58.532Z,16.09
2023-05-17T20:35:44.854Z,16.10
2023-05-17T20:38:30.970Z,15.96
2023-05-17T20:41:17.087Z,15.94
2023-05-17T20:44:04.630Z,15.83
2023-05-17T20:46:51.397Z,15.78
2023-05-17T20:49:37.682Z,15.81
2023-05-17T20:52:38.093Z,15.70
2023-05-17T20:55:25.525Z,15.59
2023-05-17T20:58:11.637Z,15.56
2023-05-17T21:00:59.842Z,15.48
2023-05-17T21:03:46.417Z,15.45
2023-05-17T21:06:32.886Z,15.39
2023-05-17T21:09:18.995Z,15.25
2023-05-17T21:12:05.795Z,15.31
2023-05-17T21:15:03.682Z,15.26
2023-05-17T21:17:55.426Z,15.22
2023-05-17T21:20:41.691Z,15.25
2023-05-17T21:23:27.652Z,15.12
2023-05-17T21:26:14.228Z,15.13
2023-05-17T21:29:00.485Z,14.97
2023-05-17T21:31:46.570Z,15.06
2023-05-17T21:34:34.169Z,14.89
2023-05-17T21:37:20.255Z,14.97
2023-05-17T21:40:08.003Z,14.93
2023-05-17T21:42:54.146Z,14.83
2023-05-17T21:45:41.120Z,14.82
2023-05-17T21:48:27.166Z,14.76
2023-05-17T21:51:15.338Z,14.72
2023-05-17T21:54:01.437Z,14.65
2023-05-17T21:56:47.452Z,14.59
2023-05-17T21:59:33.225Z,14.49
2023-05-17T22:02:19.595Z,14.44
2023-05-17T22:05:06.840Z,14.37
2023-05-17T22:07:54.105Z,14.45
2023-05-17T22:10:40.988Z,14.34
2023-05-17T22:13:27.182Z,14.34
2023-05-17T22:16:13.832Z,14.17
2023-05-17T22:19:01.147Z,14.17
2023-05-17T22:21:47.269Z,14.03
2023-05-17T22:24:34.458Z,14.06
2023-05-17T22:27:20.812Z,14.13
2023-05-17T22:30:08.018Z,14.01
2023-05-17T22:32:56.909Z,14.01
2023-05-17T22:35:42.920Z,13.99
2023-05-17T22:38:29.104Z,13.89
2023-05-17T22:41:16.401Z,13.84
2023-05-17T22:44:02.558Z,13.88
2023-05-17T22:46:48.457Z,13.82
2023-05-17T22:49:34.619Z,13.77
2023-05-17T22:52:21.744Z,13.67
2023-05-17T22:55:09.041Z,13.63
2023-05-17T22:57:57.860Z,13.59
2023-05-17T23:00:44.104Z,13.54
2023-05-17T23:03:30.180Z,13.53
2023-05-17T23:06:16.577Z,13.56
2023-05-17T23:09:05.088Z,13.44
2023-05-17T23:11:51.366Z,13.40
2023-05-17T23:14:38.597Z,13.42
2023-05-17T23:17:24.598Z,13.41
2023-05-17T23:20:12.213Z,13.34
2023-05-17T23:22:59.429Z,13.26
2023-05-17T23:25:48.435Z,13.25
2023-05-17T23:28:35.387Z,13.22
2023-05-17T23:31:22.915Z,13.15
2023-05-17T23:34:09.055Z,13.12
2023-05-17T23:36:54.839Z,13.18
2023-05-17T23:39:40.827Z,13.14
2023-05-17T23:42:29.004Z,13.13
2023-05-17T23:45:14.915Z,13.07
2023-05-17T23:48:02.280Z,13.06
2023-05-17T23:50:48.422Z,13.01
2023-05-17T23:53:34.388Z,13.04
2023-05-17T23:56:21.434Z,13.01
2023-05-17T23:59:07.496Z,12.95
